RYR8LQ LPPR-GMTT
Flight info
| Callsign | RYR8LQ |
|---|---|
| Flight time | 1h 13m |
| Altitude | 35000 |
| Route | MANIK DCT FTM DCT ESP DCT TROIA DCT VFA DCT ORTOP N726 ABIRO |
| Aircraft | B738/M-SDE2E3FGHIRWXY/LB1 |
Departure
| Time | 2026-05-04 16:22 |
|---|---|
| Airport | Francisco de Sá Carneiro Airport (LPPR) |
Arrival
| Time | 2026-05-04 17:35 |
|---|---|
| Airport | Tangier Ibn Battuta Airport (GMTT) |
| Time | Latitude | Longitude | Altitude | Speed | Heading |
|---|---|---|---|---|---|
| 2026-05-04 15:57 | 41.23738 | -8.67557 | 233 ft | 0 kts | 259° |
| 2026-05-04 16:12 | 41.23756 | -8.67471 | 237 ft | 4 kts | 216° |
| 2026-05-04 16:13 | 41.23795 | -8.67468 | 238 ft | 2 kts | 169° |
| 2026-05-04 16:16 | 41.23791 | -8.67467 | 238 ft | 3 kts | 169° |
| 2026-05-04 16:17 | 41.23661 | -8.67433 | 237 ft | 14 kts | 169° |
| 2026-05-04 16:18 | 41.23347 | -8.67387 | 240 ft | 15 kts | 226° |
| 2026-05-04 16:18 | 41.23322 | -8.67502 | 235 ft | 10 kts | 260° |
| 2026-05-04 16:19 | 41.23309 | -8.67589 | 235 ft | 0 kts | 258° |
| 2026-05-04 16:19 | 41.23301 | -8.67641 | 237 ft | 12 kts | 258° |
| 2026-05-04 16:20 | 41.23365 | -8.67749 | 237 ft | 0 kts | 348° |
| 2026-05-04 16:21 | 41.24619 | -8.68079 | 255 ft | 158 kts | 347° |
| 2026-05-04 16:22 | 41.26746 | -8.68663 | 2145 ft | 160 kts | 343° |
| 2026-05-04 16:22 | 41.30896 | -8.69740 | 3360 ft | 230 kts | 346° |
| 2026-05-04 16:23 | 41.35897 | -8.71329 | 5482 ft | 255 kts | 327° |
| 2026-05-04 16:24 | 41.36611 | -8.79872 | 9126 ft | 268 kts | 249° |
| 2026-05-04 16:25 | 41.35136 | -8.84551 | 10591 ft | 288 kts | 249° |
| 2026-05-04 16:26 | 41.28132 | -8.88033 | 12776 ft | 355 kts | 166° |
| 2026-05-04 16:26 | 41.20874 | -8.85423 | 15202 ft | 367 kts | 172° |
| 2026-05-04 16:27 | 41.15797 | -8.83954 | 16859 ft | 376 kts | 172° |
| 2026-05-04 16:28 | 41.08031 | -8.81654 | 19129 ft | 389 kts | 172° |
| 2026-05-04 16:28 | 41.00008 | -8.79222 | 21220 ft | 400 kts | 173° |
| 2026-05-04 16:29 | 40.89029 | -8.75886 | 23799 ft | 415 kts | 174° |
| 2026-05-04 16:30 | 40.80532 | -8.73306 | 24102 ft | 418 kts | 174° |
| 2026-05-04 16:31 | 40.74840 | -8.71582 | 24089 ft | 421 kts | 174° |
| 2026-05-04 16:31 | 40.66208 | -8.68976 | 25596 ft | 424 kts | 174° |
| 2026-05-04 16:32 | 40.57471 | -8.66352 | 26950 ft | 436 kts | 174° |
| 2026-05-04 16:33 | 40.51511 | -8.64565 | 27877 ft | 442 kts | 175° |
| 2026-05-04 16:33 | 40.45474 | -8.62755 | 28763 ft | 448 kts | 175° |
| 2026-05-04 16:34 | 40.39355 | -8.60924 | 29599 ft | 454 kts | 175° |
| 2026-05-04 16:34 | 40.36266 | -8.60001 | 30010 ft | 457 kts | 175° |
| 2026-05-04 16:35 | 40.26978 | -8.57221 | 31474 ft | 453 kts | 175° |
| 2026-05-04 16:35 | 40.17756 | -8.54477 | 32794 ft | 452 kts | 175° |
| 2026-05-04 16:36 | 40.14692 | -8.53567 | 33231 ft | 451 kts | 175° |
| 2026-05-04 16:36 | 40.08600 | -8.51762 | 34066 ft | 451 kts | 175° |
| 2026-05-04 16:37 | 40.02487 | -8.49954 | 34787 ft | 450 kts | 175° |
| 2026-05-04 16:37 | 39.99554 | -8.49088 | 35056 ft | 452 kts | 175° |
| 2026-05-04 16:38 | 39.87239 | -8.45456 | 35069 ft | 451 kts | 175° |
| 2026-05-04 16:39 | 39.71926 | -8.40963 | 35036 ft | 452 kts | 175° |
| 2026-05-04 16:40 | 39.59670 | -8.37379 | 35055 ft | 452 kts | 175° |
| 2026-05-04 16:41 | 39.44327 | -8.32911 | 35039 ft | 451 kts | 175° |
| 2026-05-04 16:43 | 39.29051 | -8.28484 | 35040 ft | 451 kts | 175° |
| 2026-05-04 16:43 | 39.19888 | -8.25836 | 35041 ft | 449 kts | 175° |
| 2026-05-04 16:45 | 39.01579 | -8.20570 | 35040 ft | 448 kts | 175° |
| 2026-05-04 16:46 | 38.86342 | -8.16208 | 35032 ft | 449 kts | 175° |
| 2026-05-04 16:47 | 38.74132 | -8.12726 | 35027 ft | 449 kts | 175° |
| 2026-05-04 16:48 | 38.61924 | -8.09258 | 35039 ft | 449 kts | 175° |
| 2026-05-04 16:49 | 38.49755 | -8.05811 | 35031 ft | 449 kts | 175° |
| 2026-05-04 16:50 | 38.37535 | -8.02364 | 34982 ft | 450 kts | 175° |
| 2026-05-04 16:51 | 38.28347 | -7.99779 | 35033 ft | 452 kts | 175° |
| 2026-05-04 16:52 | 38.16033 | -7.96327 | 35049 ft | 454 kts | 175° |
| 2026-05-04 16:53 | 38.06751 | -7.93731 | 35045 ft | 456 kts | 175° |
| 2026-05-04 16:54 | 37.94347 | -7.90271 | 35032 ft | 456 kts | 175° |
| 2026-05-04 16:55 | 37.75899 | -7.85149 | 35025 ft | 453 kts | 176° |
| 2026-05-04 16:56 | 37.60509 | -7.80897 | 35027 ft | 452 kts | 176° |
| 2026-05-04 16:57 | 37.51297 | -7.78360 | 35033 ft | 451 kts | 176° |
| 2026-05-04 16:58 | 37.39077 | -7.75006 | 35017 ft | 450 kts | 176° |
| 2026-05-04 17:00 | 37.20782 | -7.70004 | 35014 ft | 450 kts | 176° |
| 2026-05-04 17:01 | 37.05485 | -7.65841 | 35040 ft | 450 kts | 176° |
| 2026-05-04 17:02 | 36.93261 | -7.62526 | 35032 ft | 449 kts | 176° |
| 2026-05-04 17:03 | 36.84180 | -7.60067 | 35033 ft | 439 kts | 176° |
| 2026-05-04 17:03 | 36.81226 | -7.59262 | 34806 ft | 431 kts | 176° |
| 2026-05-04 17:03 | 36.75456 | -7.57700 | 34185 ft | 419 kts | 176° |
| 2026-05-04 17:04 | 36.69805 | -7.56183 | 33414 ft | 412 kts | 176° |
| 2026-05-04 17:04 | 36.64252 | -7.54693 | 32686 ft | 405 kts | 176° |
| 2026-05-04 17:05 | 36.58788 | -7.53228 | 31989 ft | 398 kts | 176° |
| 2026-05-04 17:05 | 36.53410 | -7.51787 | 31304 ft | 393 kts | 176° |
| 2026-05-04 17:06 | 36.48102 | -7.50368 | 30622 ft | 387 kts | 176° |
| 2026-05-04 17:06 | 36.45474 | -7.49665 | 30297 ft | 385 kts | 176° |
| 2026-05-04 17:07 | 36.40270 | -7.48276 | 29562 ft | 379 kts | 176° |
| 2026-05-04 17:07 | 36.39398 | -7.48043 | 29439 ft | 378 kts | 176° |
| 2026-05-04 17:07 | 36.35159 | -7.46911 | 28862 ft | 372 kts | 176° |
| 2026-05-04 17:07 | 36.32637 | -7.46239 | 28505 ft | 369 kts | 176° |
| 2026-05-04 17:08 | 36.30135 | -7.45573 | 28172 ft | 366 kts | 176° |
| 2026-05-04 17:08 | 36.25200 | -7.44261 | 27490 ft | 360 kts | 176° |
| 2026-05-04 17:08 | 36.22762 | -7.43613 | 27180 ft | 356 kts | 176° |
| 2026-05-04 17:09 | 36.20344 | -7.42971 | 26879 ft | 355 kts | 176° |
| 2026-05-04 17:09 | 36.18746 | -7.42548 | 26664 ft | 354 kts | 176° |
| 2026-05-04 17:09 | 36.16331 | -7.41910 | 26346 ft | 357 kts | 176° |
| 2026-05-04 17:10 | 36.11353 | -7.40597 | 25683 ft | 371 kts | 175° |
| 2026-05-04 17:10 | 36.04357 | -7.36767 | 24546 ft | 391 kts | 135° |
| 2026-05-04 17:11 | 36.02835 | -7.33964 | 24184 ft | 396 kts | 117° |
| 2026-05-04 17:11 | 36.01934 | -7.30739 | 23843 ft | 396 kts | 108° |
| 2026-05-04 17:11 | 36.00549 | -7.24176 | 23078 ft | 393 kts | 105° |
| 2026-05-04 17:12 | 35.99888 | -7.20930 | 22730 ft | 390 kts | 106° |
| 2026-05-04 17:12 | 35.98548 | -7.14505 | 22054 ft | 383 kts | 107° |
| 2026-05-04 17:13 | 35.96522 | -7.05091 | 21062 ft | 374 kts | 107° |
| 2026-05-04 17:14 | 35.94573 | -6.96151 | 20143 ft | 366 kts | 107° |
| 2026-05-04 17:14 | 35.93912 | -6.93126 | 19828 ft | 363 kts | 107° |
| 2026-05-04 17:14 | 35.92603 | -6.87151 | 19206 ft | 359 kts | 107° |
| 2026-05-04 17:15 | 35.91953 | -6.84192 | 18900 ft | 356 kts | 107° |
| 2026-05-04 17:15 | 35.90671 | -6.78357 | 18269 ft | 353 kts | 107° |
| 2026-05-04 17:16 | 35.89393 | -6.72557 | 17588 ft | 348 kts | 107° |
| 2026-05-04 17:16 | 35.87504 | -6.64014 | 16661 ft | 340 kts | 107° |
| 2026-05-04 17:17 | 35.86883 | -6.61210 | 16362 ft | 337 kts | 107° |
| 2026-05-04 17:17 | 35.85045 | -6.52933 | 15476 ft | 330 kts | 107° |
| 2026-05-04 17:18 | 35.84439 | -6.50209 | 15193 ft | 328 kts | 107° |
| 2026-05-04 17:18 | 35.83240 | -6.44815 | 14614 ft | 325 kts | 106° |
| 2026-05-04 17:19 | 35.82292 | -6.39463 | 14147 ft | 319 kts | 103° |
| 2026-05-04 17:19 | 35.81399 | -6.34173 | 13556 ft | 316 kts | 103° |
| 2026-05-04 17:20 | 35.80483 | -6.28907 | 12970 ft | 312 kts | 104° |
| 2026-05-04 17:20 | 35.79499 | -6.23732 | 12392 ft | 308 kts | 107° |
| 2026-05-04 17:20 | 35.78545 | -6.21434 | 12047 ft | 299 kts | 139° |
| 2026-05-04 17:21 | 35.74954 | -6.19689 | 11498 ft | 274 kts | 185° |
| 2026-05-04 17:21 | 35.71431 | -6.17802 | 10557 ft | 306 kts | 130° |
| 2026-05-04 17:22 | 35.70524 | -6.15432 | 10267 ft | 310 kts | 104° |
| 2026-05-04 17:22 | 35.70490 | -6.12807 | 10126 ft | 305 kts | 78° |
| 2026-05-04 17:23 | 35.71883 | -6.05379 | 9322 ft | 296 kts | 85° |
| 2026-05-04 17:23 | 35.72096 | -6.02870 | 9059 ft | 294 kts | 83° |
| 2026-05-04 17:23 | 35.72632 | -5.98286 | 8599 ft | 290 kts | 81° |
| 2026-05-04 17:24 | 35.72934 | -5.95845 | 8340 ft | 288 kts | 81° |
| 2026-05-04 17:24 | 35.72301 | -5.88728 | 7381 ft | 287 kts | 116° |
| 2026-05-04 17:25 | 35.71462 | -5.86499 | 7082 ft | 287 kts | 116° |
| 2026-05-04 17:25 | 35.69803 | -5.82073 | 6553 ft | 283 kts | 116° |
| 2026-05-04 17:26 | 35.68179 | -5.77712 | 6134 ft | 274 kts | 115° |
| 2026-05-04 17:26 | 35.65902 | -5.71549 | 5777 ft | 255 kts | 115° |
| 2026-05-04 17:27 | 35.64548 | -5.67693 | 5457 ft | 237 kts | 104° |
| 2026-05-04 17:27 | 35.65511 | -5.64281 | 4969 ft | 208 kts | 36° |
| 2026-05-04 17:28 | 35.68029 | -5.63367 | 4491 ft | 186 kts | 346° |
| 2026-05-04 17:29 | 35.70617 | -5.66199 | 3820 ft | 165 kts | 283° |
| 2026-05-04 17:29 | 35.71159 | -5.70378 | 3301 ft | 168 kts | 276° |
| 2026-05-04 17:30 | 35.71541 | -5.74571 | 2658 ft | 162 kts | 279° |
| 2026-05-04 17:31 | 35.71797 | -5.77255 | 2243 ft | 151 kts | 277° |
| 2026-05-04 17:31 | 35.72131 | -5.80979 | 1630 ft | 144 kts | 277° |
| 2026-05-04 17:32 | 35.72346 | -5.83327 | 1259 ft | 136 kts | 277° |
| 2026-05-04 17:33 | 35.72654 | -5.86766 | 752 ft | 134 kts | 277° |
| 2026-05-04 17:33 | 35.72768 | -5.87897 | 523 ft | 132 kts | 277° |
| 2026-05-04 17:34 | 35.73081 | -5.91219 | 64 ft | 123 kts | 275° |
| 2026-05-04 17:34 | 35.73164 | -5.92110 | 57 ft | 77 kts | 277° |
| 2026-05-04 17:35 | 35.73043 | -5.92581 | 55 ft | 16 kts | 136° |
| 2026-05-04 17:35 | 35.73002 | -5.92323 | 55 ft | 15 kts | 96° |
| 2026-05-04 17:35 | 35.72991 | -5.92199 | 59 ft | 14 kts | 96° |
| 2026-05-04 17:36 | 35.72979 | -5.92073 | 58 ft | 17 kts | 96° |
| 2026-05-04 17:36 | 35.72965 | -5.91925 | 58 ft | 15 kts | 96° |
| 2026-05-04 17:36 | 35.72955 | -5.91809 | 59 ft | 12 kts | 96° |
| 2026-05-04 17:36 | 35.72913 | -5.91727 | 51 ft | 12 kts | 158° |
| 2026-05-04 17:37 | 35.72830 | -5.91716 | 59 ft | 12 kts | 175° |
| 2026-05-04 17:37 | 35.72750 | -5.91708 | 59 ft | 12 kts | 175° |
| 2026-05-04 17:37 | 35.72647 | -5.91699 | 59 ft | 16 kts | 175° |
| 2026-05-04 17:37 | 35.72534 | -5.91688 | 59 ft | 14 kts | 175° |
| 2026-05-04 17:38 | 35.72450 | -5.91637 | 59 ft | 14 kts | 127° |
| 2026-05-04 17:38 | 35.72427 | -5.91523 | 53 ft | 15 kts | 85° |
| 2026-05-04 17:38 | 35.72435 | -5.91392 | 59 ft | 12 kts | 85° |
| 2026-05-04 17:38 | 35.72441 | -5.91290 | 55 ft | 12 kts | 85° |
| 2026-05-04 17:39 | 35.72493 | -5.91246 | 59 ft | 8 kts | 355° |
| 2026-05-04 17:39 | 35.72522 | -5.91249 | 59 ft | 0 kts | 355° |